Aeroboteco Virtual Airline

Aeroboteco Virtual Airlines! Uma nuvem a frente.



 INFORMAÇÕES METEOROLÓGICAS
METAR FOR SBPR
ADDS - METARS form results

(1027 UTC 16 January 2019)
Data provider http://aviationweather.gov/metar/data/
 
METAR text: SBPR 161000Z 10010KT CAVOK 25/19 Q1022
Conditions at: SBPR (BELO HORIZONTE , BR) observed 1000 UTC 16 January 2019
Temperature: 25.0°C (77°F)
Dewpoint: 19.0°C (66°F) [RH = 69%]
Pressure (altimeter): 30.18 inches Hg (1022.0 mb)
Winds: from the E (100 degrees) at 12 MPH (10 knots; 5.1 m/s)
Visibility: 6 or more miles (10+ km)
Ceiling: ceiling and visibility are OK
Clouds: unknown
Weather: no significant weather observed at this time

 MAPA DO AEROPORTO

 INFORMAÇÕES DA PISTA
Pista 9 Tamanho da pista 3045 ft Largura da pista 59 ft
Elevação da pista 0 ft Ranhura da pista 0 ft Proa da pista 0
Pista 27 Tamanho da pista 3045 ft Largura da pista 59 ft
Elevação da pista 0 ft Ranhura da pista 0 ft Proa da pista 0

 FREQUÊNCIAS DO AEROPORTO
Tipo AFIS Nome RDO Frequência 125.85 MHZ
Tipo ATIS Nome BELO HORIZ Frequência 127.45 MHZ

 AUXÍLIOS DE NAVEGAÇÃO PRÓXIMOS AO AEROPORTO